<?xml version="1.0" encoding="utf-8"?>
<gpx xmlns:xsi="http://www.w3.org/2001/XMLSchema-instance" xmlns:xsd="http://www.w3.org/2001/XMLSchema" version="1.1" creator="Shapelink.com" xmlns="http://www.topografix.com/GPX/1/1" xmlns:gpxtpx="http://www.garmin.com/xmlschemas/TrackPointExtension/v1">
  <metadata>
    <name>Cykling 6.08 km, 2019-07-07</name>
    <desc></desc>
    <author><name>Marian Moron</name></author> 
    <time>2019-07-07T10:17:38Z</time>
  </metadata>
  <trk>
    <name>Cykling 6.08 km, 2019-07-07</name>
    <trkseg>
      <trkpt lat="51.228624579251" lon="4.449213018981">
        <ele>9.8</ele>
        <time>2019-07-07T10:17:38Z</time>
      </trkpt>
      <trkpt lat="51.228877964088" lon="4.448781770226">
        <ele>7.2</ele>
        <time>2019-07-07T10:17:54Z</time>
      </trkpt>
      <trkpt lat="51.228891794223" lon="4.448757295078">
        <ele>6.2</ele>
        <time>2019-07-07T10:18:08Z</time>
      </trkpt>
      <trkpt lat="51.228908474204" lon="4.448721169089">
        <ele>6</ele>
        <time>2019-07-07T10:18:11Z</time>
      </trkpt>
      <trkpt lat="51.229016349257" lon="4.448481698206">
        <ele>5.6</ele>
        <time>2019-07-07T10:18:24Z</time>
      </trkpt>
      <trkpt lat="51.229380458993" lon="4.449124087022">
        <ele>6</ele>
        <time>2019-07-07T10:18:41Z</time>
      </trkpt>
      <trkpt lat="51.229530327365" lon="4.450003683608">
        <ele>3.4</ele>
        <time>2019-07-07T10:18:54Z</time>
      </trkpt>
      <trkpt lat="51.229682542669" lon="4.450904234944">
        <ele>0</ele>
        <time>2019-07-07T10:19:05Z</time>
      </trkpt>
      <trkpt lat="51.229828806824" lon="4.451765558988">
        <ele>0</ele>
        <time>2019-07-07T10:19:16Z</time>
      </trkpt>
      <trkpt lat="51.2299800163" lon="4.45262369791">
        <ele>0</ele>
        <time>2019-07-07T10:19:26Z</time>
      </trkpt>
      <trkpt lat="51.230069367354" lon="4.453122588598">
        <ele>0</ele>
        <time>2019-07-07T10:19:32Z</time>
      </trkpt>
      <trkpt lat="51.230239519924" lon="4.454009728894">
        <ele>0</ele>
        <time>2019-07-07T10:19:43Z</time>
      </trkpt>
      <trkpt lat="51.230292996446" lon="4.454334108424">
        <ele>0</ele>
        <time>2019-07-07T10:19:47Z</time>
      </trkpt>
      <trkpt lat="51.230269946221" lon="4.454637700842">
        <ele>0</ele>
        <time>2019-07-07T10:19:51Z</time>
      </trkpt>
      <trkpt lat="51.230150252689" lon="4.455328034126">
        <ele>0</ele>
        <time>2019-07-07T10:20:03Z</time>
      </trkpt>
      <trkpt lat="51.230668337928" lon="4.455677726994">
        <ele>0</ele>
        <time>2019-07-07T10:20:15Z</time>
      </trkpt>
      <trkpt lat="51.231049798197" lon="4.455959023558">
        <ele>0</ele>
        <time>2019-07-07T10:20:23Z</time>
      </trkpt>
      <trkpt lat="51.231159517268" lon="4.456098079279">
        <ele>0</ele>
        <time>2019-07-07T10:20:26Z</time>
      </trkpt>
      <trkpt lat="51.231248700684" lon="4.456278541586">
        <ele>0</ele>
        <time>2019-07-07T10:20:30Z</time>
      </trkpt>
      <trkpt lat="51.23121299379" lon="4.456353224315">
        <ele>0</ele>
        <time>2019-07-07T10:20:32Z</time>
      </trkpt>
      <trkpt lat="51.230637492536" lon="4.45657995471">
        <ele>1.4</ele>
        <time>2019-07-07T10:20:44Z</time>
      </trkpt>
      <trkpt lat="51.230086214973" lon="4.456763434501">
        <ele>3.6</ele>
        <time>2019-07-07T10:20:54Z</time>
      </trkpt>
      <trkpt lat="51.22974616129" lon="4.45699402057">
        <ele>2.4</ele>
        <time>2019-07-07T10:21:03Z</time>
      </trkpt>
      <trkpt lat="51.229870045772" lon="4.457718635825">
        <ele>0</ele>
        <time>2019-07-07T10:21:14Z</time>
      </trkpt>
      <trkpt lat="51.229754627009" lon="4.458026251555">
        <ele>0</ele>
        <time>2019-07-07T10:21:23Z</time>
      </trkpt>
      <trkpt lat="51.229854203981" lon="4.45787412007">
        <ele>13.4</ele>
        <time>2019-07-07T10:24:43Z</time>
      </trkpt>
      <trkpt lat="51.229880104052" lon="4.457870683491">
        <ele>13.8</ele>
        <time>2019-07-07T10:24:47Z</time>
      </trkpt>
      <trkpt lat="51.229932155651" lon="4.457859535564">
        <ele>13</ele>
        <time>2019-07-07T10:24:53Z</time>
      </trkpt>
      <trkpt lat="51.230498772091" lon="4.457648898417">
        <ele>12.2</ele>
        <time>2019-07-07T10:25:10Z</time>
      </trkpt>
      <trkpt lat="51.231058180097" lon="4.457526103582">
        <ele>6.8</ele>
        <time>2019-07-07T10:25:21Z</time>
      </trkpt>
      <trkpt lat="51.231147112056" lon="4.457503053357">
        <ele>5.2</ele>
        <time>2019-07-07T10:25:23Z</time>
      </trkpt>
      <trkpt lat="51.231227997391" lon="4.457434405596">
        <ele>3.4</ele>
        <time>2019-07-07T10:25:25Z</time>
      </trkpt>
      <trkpt lat="51.23127166709" lon="4.457335582995">
        <ele>0.8</ele>
        <time>2019-07-07T10:25:27Z</time>
      </trkpt>
      <trkpt lat="51.231291951288" lon="4.457194264161">
        <ele>0.4</ele>
        <time>2019-07-07T10:25:29Z</time>
      </trkpt>
      <trkpt lat="51.231352636244" lon="4.456347189347">
        <ele>3</ele>
        <time>2019-07-07T10:25:43Z</time>
      </trkpt>
      <trkpt lat="51.23140577749" lon="4.456295137748">
        <ele>4.6</ele>
        <time>2019-07-07T10:25:47Z</time>
      </trkpt>
      <trkpt lat="51.231438215443" lon="4.456206876341">
        <ele>3.2</ele>
        <time>2019-07-07T10:25:53Z</time>
      </trkpt>
      <trkpt lat="51.23146947993" lon="4.456162452271">
        <ele>2</ele>
        <time>2019-07-07T10:25:55Z</time>
      </trkpt>
      <trkpt lat="51.231964514944" lon="4.45651960503">
        <ele>0</ele>
        <time>2019-07-07T10:26:14Z</time>
      </trkpt>
      <trkpt lat="51.232236759056" lon="4.456743234122">
        <ele>0</ele>
        <time>2019-07-07T10:26:24Z</time>
      </trkpt>
      <trkpt lat="51.232311777061" lon="4.456599819813">
        <ele>0</ele>
        <time>2019-07-07T10:26:29Z</time>
      </trkpt>
      <trkpt lat="51.232188479312" lon="4.455726258195">
        <ele>0</ele>
        <time>2019-07-07T10:26:45Z</time>
      </trkpt>
      <trkpt lat="51.232061912622" lon="4.454846661609">
        <ele>1</ele>
        <time>2019-07-07T10:26:58Z</time>
      </trkpt>
      <trkpt lat="51.231881534134" lon="4.453981398072">
        <ele>0</ele>
        <time>2019-07-07T10:27:09Z</time>
      </trkpt>
      <trkpt lat="51.23169746761" lon="4.453095012147">
        <ele>0</ele>
        <time>2019-07-07T10:27:20Z</time>
      </trkpt>
      <trkpt lat="51.231529075239" lon="4.452198567942">
        <ele>0.6</ele>
        <time>2019-07-07T10:27:30Z</time>
      </trkpt>
      <trkpt lat="51.23137308808" lon="4.451305476497">
        <ele>0</ele>
        <time>2019-07-07T10:27:40Z</time>
      </trkpt>
      <trkpt lat="51.231218106749" lon="4.45041087631">
        <ele>0</ele>
        <time>2019-07-07T10:27:51Z</time>
      </trkpt>
      <trkpt lat="51.231045271971" lon="4.449528178421">
        <ele>0</ele>
        <time>2019-07-07T10:28:02Z</time>
      </trkpt>
      <trkpt lat="51.230868665338" lon="4.448687222394">
        <ele>0.4</ele>
        <time>2019-07-07T10:28:13Z</time>
      </trkpt>
      <trkpt lat="51.230633636862" lon="4.447872920809">
        <ele>1</ele>
        <time>2019-07-07T10:28:23Z</time>
      </trkpt>
      <trkpt lat="51.23039575854" lon="4.447034227895">
        <ele>1.4</ele>
        <time>2019-07-07T10:28:33Z</time>
      </trkpt>
      <trkpt lat="51.230186797773" lon="4.44616795853">
        <ele>0</ele>
        <time>2019-07-07T10:28:44Z</time>
      </trkpt>
      <trkpt lat="51.229923103199" lon="4.445372600039">
        <ele>0</ele>
        <time>2019-07-07T10:28:55Z</time>
      </trkpt>
      <trkpt lat="51.229794441034" lon="4.444941602741">
        <ele>0</ele>
        <time>2019-07-07T10:29:05Z</time>
      </trkpt>
      <trkpt lat="51.229818161811" lon="4.444954678505">
        <ele>4</ele>
        <time>2019-07-07T10:29:16Z</time>
      </trkpt>
      <trkpt lat="51.229812043024" lon="4.444920228896">
        <ele>4.6</ele>
        <time>2019-07-07T10:29:20Z</time>
      </trkpt>
      <trkpt lat="51.22957433234" lon="4.444131911201">
        <ele>1.4</ele>
        <time>2019-07-07T10:29:38Z</time>
      </trkpt>
      <trkpt lat="51.229468636581" lon="4.44367601966">
        <ele>0.4</ele>
        <time>2019-07-07T10:29:45Z</time>
      </trkpt>
      <trkpt lat="51.229446676003" lon="4.443405954842">
        <ele>0.4</ele>
        <time>2019-07-07T10:29:54Z</time>
      </trkpt>
      <trkpt lat="51.229440557216" lon="4.443397908218">
        <ele>0</ele>
        <time>2019-07-07T10:29:57Z</time>
      </trkpt>
      <trkpt lat="51.229444999623" lon="4.443400171331">
        <ele>0.8</ele>
        <time>2019-07-07T10:30:18Z</time>
      </trkpt>
      <trkpt lat="51.229430247479" lon="4.44332984719">
        <ele>0.8</ele>
        <time>2019-07-07T10:30:23Z</time>
      </trkpt>
      <trkpt lat="51.229370568351" lon="4.443119545319">
        <ele>0.8</ele>
        <time>2019-07-07T10:30:31Z</time>
      </trkpt>
      <trkpt lat="51.229346260841" lon="4.443119880595">
        <ele>0.6</ele>
        <time>2019-07-07T10:30:50Z</time>
      </trkpt>
      <trkpt lat="51.229328323575" lon="4.443048466807">
        <ele>0.6</ele>
        <time>2019-07-07T10:30:55Z</time>
      </trkpt>
      <trkpt lat="51.22894652803" lon="4.44236592869">
        <ele>0</ele>
        <time>2019-07-07T10:31:11Z</time>
      </trkpt>
      <trkpt lat="51.228880897753" lon="4.442254197963">
        <ele>0</ele>
        <time>2019-07-07T10:31:13Z</time>
      </trkpt>
      <trkpt lat="51.228495665629" lon="4.441590686759">
        <ele>0</ele>
        <time>2019-07-07T10:31:26Z</time>
      </trkpt>
      <trkpt lat="51.228394244639" lon="4.441487840846">
        <ele>0</ele>
        <time>2019-07-07T10:31:29Z</time>
      </trkpt>
      <trkpt lat="51.228101967786" lon="4.440882583847">
        <ele>0</ele>
        <time>2019-07-07T10:31:39Z</time>
      </trkpt>
      <trkpt lat="51.228033990577" lon="4.440798932485">
        <ele>0</ele>
        <time>2019-07-07T10:31:41Z</time>
      </trkpt>
      <trkpt lat="51.227952183233" lon="4.440718382426">
        <ele>0</ele>
        <time>2019-07-07T10:31:43Z</time>
      </trkpt>
      <trkpt lat="51.227713047626" lon="4.440225442887">
        <ele>0</ele>
        <time>2019-07-07T10:31:50Z</time>
      </trkpt>
      <trkpt lat="51.227661415122" lon="4.440065683873">
        <ele>0</ele>
        <time>2019-07-07T10:31:52Z</time>
      </trkpt>
      <trkpt lat="51.227318092498" lon="4.439326484112">
        <ele>0</ele>
        <time>2019-07-07T10:32:02Z</time>
      </trkpt>
      <trkpt lat="51.226979463738" lon="4.438607652368">
        <ele>0</ele>
        <time>2019-07-07T10:32:13Z</time>
      </trkpt>
      <trkpt lat="51.226952557839" lon="4.438490557225">
        <ele>0</ele>
        <time>2019-07-07T10:32:15Z</time>
      </trkpt>
      <trkpt lat="51.226819872362" lon="4.437656893451">
        <ele>0</ele>
        <time>2019-07-07T10:32:26Z</time>
      </trkpt>
      <trkpt lat="51.226713170775" lon="4.437163115722">
        <ele>0</ele>
        <time>2019-07-07T10:32:32Z</time>
      </trkpt>
      <trkpt lat="51.226657598778" lon="4.436982737234">
        <ele>0</ele>
        <time>2019-07-07T10:32:35Z</time>
      </trkpt>
      <trkpt lat="51.226650306525" lon="4.43679028881">
        <ele>0</ele>
        <time>2019-07-07T10:32:38Z</time>
      </trkpt>
      <trkpt lat="51.226640248245" lon="4.436629775425">
        <ele>0</ele>
        <time>2019-07-07T10:32:41Z</time>
      </trkpt>
      <trkpt lat="51.226406057959" lon="4.436478733587">
        <ele>0</ele>
        <time>2019-07-07T10:32:48Z</time>
      </trkpt>
      <trkpt lat="51.226073631805" lon="4.435791082511">
        <ele>0</ele>
        <time>2019-07-07T10:33:00Z</time>
      </trkpt>
      <trkpt lat="51.225763417686" lon="4.435064036505">
        <ele>0</ele>
        <time>2019-07-07T10:33:11Z</time>
      </trkpt>
      <trkpt lat="51.225456221051" lon="4.434328692418">
        <ele>0</ele>
        <time>2019-07-07T10:33:22Z</time>
      </trkpt>
      <trkpt lat="51.225150868434" lon="4.433526879864">
        <ele>0</ele>
        <time>2019-07-07T10:33:33Z</time>
      </trkpt>
      <trkpt lat="51.224796984616" lon="4.432781058402">
        <ele>0</ele>
        <time>2019-07-07T10:33:44Z</time>
      </trkpt>
      <trkpt lat="51.224428264835" lon="4.432057784251">
        <ele>0</ele>
        <time>2019-07-07T10:33:55Z</time>
      </trkpt>
      <trkpt lat="51.224331956804" lon="4.431609520239">
        <ele>0</ele>
        <time>2019-07-07T10:34:03Z</time>
      </trkpt>
      <trkpt lat="51.224317372298" lon="4.43145604765">
        <ele>0</ele>
        <time>2019-07-07T10:34:05Z</time>
      </trkpt>
      <trkpt lat="51.224164570261" lon="4.430588269543">
        <ele>0</ele>
        <time>2019-07-07T10:34:16Z</time>
      </trkpt>
      <trkpt lat="51.223944377748" lon="4.429797353459">
        <ele>0</ele>
        <time>2019-07-07T10:34:27Z</time>
      </trkpt>
      <trkpt lat="51.223758467206" lon="4.428988248652">
        <ele>0</ele>
        <time>2019-07-07T10:34:36Z</time>
      </trkpt>
      <trkpt lat="51.223555373769" lon="4.428092642637">
        <ele>0</ele>
        <time>2019-07-07T10:34:45Z</time>
      </trkpt>
      <trkpt lat="51.223342305871" lon="4.427259565596">
        <ele>0</ele>
        <time>2019-07-07T10:34:54Z</time>
      </trkpt>
      <trkpt lat="51.223332079953" lon="4.427084383886">
        <ele>0</ele>
        <time>2019-07-07T10:34:56Z</time>
      </trkpt>
      <trkpt lat="51.223216828828" lon="4.426156423737">
        <ele>0</ele>
        <time>2019-07-07T10:35:06Z</time>
      </trkpt>
      <trkpt lat="51.223113647639" lon="4.425306415258">
        <ele>7.6</ele>
        <time>2019-07-07T10:35:19Z</time>
      </trkpt>
      <trkpt lat="51.223103673178" lon="4.424990333809">
        <ele>10.6</ele>
        <time>2019-07-07T10:35:24Z</time>
      </trkpt>
      <trkpt lat="51.222977944678" lon="4.42409925402">
        <ele>3.4</ele>
        <time>2019-07-07T10:35:35Z</time>
      </trkpt>
      <trkpt lat="51.222806618642" lon="4.423208844783">
        <ele>0</ele>
        <time>2019-07-07T10:35:45Z</time>
      </trkpt>
      <trkpt lat="51.222664964532" lon="4.422289517991">
        <ele>2.6</ele>
        <time>2019-07-07T10:35:55Z</time>
      </trkpt>
      <trkpt lat="51.222532362874" lon="4.421588707332">
        <ele>0</ele>
        <time>2019-07-07T10:36:06Z</time>
      </trkpt>
      <trkpt lat="51.222130618407" lon="4.420943133394">
        <ele>0</ele>
        <time>2019-07-07T10:36:16Z</time>
      </trkpt>
      <trkpt lat="51.221752929993" lon="4.420324381536">
        <ele>11.4</ele>
        <time>2019-07-07T10:36:33Z</time>
      </trkpt>
      <trkpt lat="51.221462580977" lon="4.419982567654">
        <ele>6.8</ele>
        <time>2019-07-07T10:36:43Z</time>
      </trkpt>
      <trkpt lat="51.220907783016" lon="4.419868238538">
        <ele>14.4</ele>
        <time>2019-07-07T10:37:00Z</time>
      </trkpt>
      <trkpt lat="51.220365557905" lon="4.419820210251">
        <ele>19.4</ele>
        <time>2019-07-07T10:37:10Z</time>
      </trkpt>
      <trkpt lat="51.219805060252" lon="4.419708060429">
        <ele>18.2</ele>
        <time>2019-07-07T10:37:18Z</time>
      </trkpt>
      <trkpt lat="51.219262583684" lon="4.419522401344">
        <ele>16.4</ele>
        <time>2019-07-07T10:37:27Z</time>
      </trkpt>
      <trkpt lat="51.219235929242" lon="4.41947244522">
        <ele>15.8</ele>
        <time>2019-07-07T10:37:28Z</time>
      </trkpt>
      <trkpt lat="51.219358221163" lon="4.418630483365">
        <ele>8.6</ele>
        <time>2019-07-07T10:37:46Z</time>
      </trkpt>
      <trkpt lat="51.219358640258" lon="4.418612797556">
        <ele>8.8</ele>
        <time>2019-07-07T10:37:47Z</time>
      </trkpt>
      <trkpt lat="51.219408931658" lon="4.418504922503">
        <ele>15.4</ele>
        <time>2019-07-07T10:38:01Z</time>
      </trkpt>
      <trkpt lat="51.219408093468" lon="4.418473155102">
        <ele>20</ele>
        <time>2019-07-07T10:38:11Z</time>
      </trkpt>
      <trkpt lat="51.219401974681" lon="4.418425629729">
        <ele>20.8</ele>
        <time>2019-07-07T10:38:15Z</time>
      </trkpt>
      <trkpt lat="51.219499456178" lon="4.417577716725">
        <ele>18</ele>
        <time>2019-07-07T10:38:38Z</time>
      </trkpt>
      <trkpt lat="51.219459642153" lon="4.417343107344">
        <ele>6.4</ele>
        <time>2019-07-07T10:38:50Z</time>
      </trkpt>
      <trkpt lat="51.218961924931" lon="4.417178989742">
        <ele>5</ele>
        <time>2019-07-07T10:39:06Z</time>
      </trkpt>
      <trkpt lat="51.218973408134" lon="4.417190137669">
        <ele>5.4</ele>
        <time>2019-07-07T10:39:10Z</time>
      </trkpt>
      <trkpt lat="51.218976593256" lon="4.417173541507">
        <ele>6.2</ele>
        <time>2019-07-07T10:39:15Z</time>
      </trkpt>
      <trkpt lat="51.218394889396" lon="4.416973381735">
        <ele>0.8</ele>
        <time>2019-07-07T10:39:28Z</time>
      </trkpt>
      <trkpt lat="51.217872445569" lon="4.416665514548">
        <ele>4.2</ele>
        <time>2019-07-07T10:39:39Z</time>
      </trkpt>
      <trkpt lat="51.217754847512" lon="4.415901001449">
        <ele>3.8</ele>
        <time>2019-07-07T10:39:54Z</time>
      </trkpt>
      <trkpt lat="51.217419906788" lon="4.415373444663">
        <ele>11.8</ele>
        <time>2019-07-07T10:40:11Z</time>
      </trkpt>
      <trkpt lat="51.216683221597" lon="4.414387900861">
        <ele>83.4</ele>
        <time>2019-07-07T10:40:36Z</time>
      </trkpt>
      <trkpt lat="51.216169914041" lon="4.413968805861">
        <ele>86.8</ele>
        <time>2019-07-07T10:40:50Z</time>
      </trkpt>
      <trkpt lat="51.215679069977" lon="4.413669069117">
        <ele>75.2</ele>
        <time>2019-07-07T10:41:03Z</time>
      </trkpt>
      <trkpt lat="51.215666329489" lon="4.413661693045">
        <ele>75.4</ele>
        <time>2019-07-07T10:41:06Z</time>
      </trkpt>
      <trkpt lat="51.215629030034" lon="4.413640486838">
        <ele>75.6</ele>
        <time>2019-07-07T10:41:10Z</time>
      </trkpt>
      <trkpt lat="51.215130306984" lon="4.413274197808">
        <ele>58.4</ele>
        <time>2019-07-07T10:41:27Z</time>
      </trkpt>
      <trkpt lat="51.214862002365" lon="4.412836327352">
        <ele>18.6</ele>
        <time>2019-07-07T10:41:39Z</time>
      </trkpt>
      <trkpt lat="51.214421784977" lon="4.412271471111">
        <ele>12.6</ele>
        <time>2019-07-07T10:41:47Z</time>
      </trkpt>
      <trkpt lat="51.213939741908" lon="4.411750033112">
        <ele>9.8</ele>
        <time>2019-07-07T10:41:55Z</time>
      </trkpt>
      <trkpt lat="51.213594659085" lon="4.411391706887">
        <ele>7.2</ele>
        <time>2019-07-07T10:42:04Z</time>
      </trkpt>
      <trkpt lat="51.21357999076" lon="4.411364884807">
        <ele>6.2</ele>
        <time>2019-07-07T10:42:06Z</time>
      </trkpt>
      <trkpt lat="51.213602202795" lon="4.411333536501">
        <ele>5.2</ele>
        <time>2019-07-07T10:42:09Z</time>
      </trkpt>
      <trkpt lat="51.213799093626" lon="4.410781085472">
        <ele>4</ele>
        <time>2019-07-07T10:42:24Z</time>
      </trkpt>
      <trkpt lat="51.213316463824" lon="4.410296611652">
        <ele>9.6</ele>
        <time>2019-07-07T10:42:39Z</time>
      </trkpt>
      <trkpt lat="51.212854453496" lon="4.409763774269">
        <ele>18</ele>
        <time>2019-07-07T10:42:52Z</time>
      </trkpt>
      <trkpt lat="51.212502748972" lon="4.409100095427">
        <ele>27</ele>
        <time>2019-07-07T10:43:11Z</time>
      </trkpt>
      <trkpt lat="51.212454050133" lon="4.408235502442">
        <ele>11.2</ele>
        <time>2019-07-07T10:43:24Z</time>
      </trkpt>
      <trkpt lat="51.212625040893" lon="4.407436288277">
        <ele>13.4</ele>
        <time>2019-07-07T10:43:40Z</time>
      </trkpt>
      <trkpt lat="51.213163661787" lon="4.40722648932">
        <ele>17.4</ele>
        <time>2019-07-07T10:43:53Z</time>
      </trkpt>
      <trkpt lat="51.213707144183" lon="4.407053486904">
        <ele>18.2</ele>
        <time>2019-07-07T10:44:04Z</time>
      </trkpt>
      <trkpt lat="51.213770427528" lon="4.407042590434">
        <ele>21.2</ele>
        <time>2019-07-07T10:44:06Z</time>
      </trkpt>
      <trkpt lat="51.21380043473" lon="4.407378872262">
        <ele>27</ele>
        <time>2019-07-07T10:44:12Z</time>
      </trkpt>
      <trkpt lat="51.21374679057" lon="4.407705431086">
        <ele>24.8</ele>
        <time>2019-07-07T10:44:16Z</time>
      </trkpt>
      <trkpt lat="51.213871848518" lon="4.407975328266">
        <ele>20.2</ele>
        <time>2019-07-07T10:44:53Z</time>
      </trkpt>
      <trkpt lat="51.213839242927" lon="4.408022099268">
        <ele>18.8</ele>
        <time>2019-07-07T10:44:57Z</time>
      </trkpt>
      <trkpt lat="51.213923816298" lon="4.408906641175">
        <ele>4</ele>
        <time>2019-07-07T10:45:15Z</time>
      </trkpt>
      <trkpt lat="51.213972179861" lon="4.40895232253">
        <ele>0.6</ele>
        <time>2019-07-07T10:45:20Z</time>
      </trkpt>
    </trkseg>
  </trk>
</gpx>